createdAt,value
2022-08-25T00:01:36.167Z,2.50
2022-08-25T00:04:07.546Z,2.13
2022-08-25T00:06:35.523Z,2.50
2022-08-25T00:09:03.643Z,2.30
2022-08-25T00:11:33.674Z,1.95
2022-08-25T00:14:06.895Z,2.28
2022-08-25T00:16:35.447Z,2.45
2022-08-25T00:19:07.996Z,2.95
2022-08-25T00:21:36.081Z,2.95
2022-08-25T00:24:05.211Z,2.15
2022-08-25T00:26:33.345Z,2.47
2022-08-25T00:29:03.442Z,2.10
2022-08-25T00:31:38.352Z,2.33
2022-08-25T00:34:09.258Z,2.50
2022-08-25T00:36:37.995Z,2.85
2022-08-25T00:39:06.709Z,2.45
2022-08-25T00:41:35.653Z,1.92
2022-08-25T00:44:08.303Z,2.10
2022-08-25T00:46:40.441Z,2.53
2022-08-25T00:49:20.991Z,2.20
2022-08-25T00:51:56.871Z,2.90
2022-08-25T00:54:28.678Z,2.50
2022-08-25T00:56:58.829Z,3.15
2022-08-25T00:59:28.993Z,2.53
2022-08-25T01:01:57.697Z,2.80
2022-08-25T01:04:26.698Z,2.60
2022-08-25T01:06:55.794Z,2.80
2022-08-25T01:09:24.151Z,3.22
2022-08-25T01:11:52.902Z,2.42
2022-08-25T01:14:23.081Z,2.90
2022-08-25T01:16:53.946Z,3.08
2022-08-25T01:19:22.853Z,2.67
2022-08-25T01:21:54.305Z,3.15
2022-08-25T01:24:27.702Z,2.72
2022-08-25T01:26:55.668Z,2.80
2022-08-25T01:29:25.668Z,2.53
2022-08-25T01:31:57.994Z,2.50
2022-08-25T01:34:27.481Z,2.80
2022-08-25T01:36:58.688Z,2.30
2022-08-25T01:39:28.427Z,2.65
2022-08-25T01:42:13.922Z,2.38
2022-08-25T01:44:45.218Z,2.22
2022-08-25T01:47:14.905Z,2.47
2022-08-25T01:49:43.183Z,2.42
2022-08-25T01:52:17.136Z,3.17
2022-08-25T01:54:45.303Z,2.90
2022-08-25T01:57:13.237Z,2.60
2022-08-25T01:59:41.403Z,2.50
2022-08-25T02:02:09.415Z,3.05
2022-08-25T02:04:39.585Z,2.55
2022-08-25T02:07:11.066Z,3.00
2022-08-25T02:09:40.968Z,2.22
2022-08-25T02:12:10.366Z,2.60
2022-08-25T02:14:38.658Z,2.80
2022-08-25T02:17:07.106Z,3.13
2022-08-25T02:19:35.440Z,2.83
2022-08-25T02:22:03.639Z,2.55
2022-08-25T02:24:31.664Z,3.35
2022-08-25T02:27:01.277Z,2.83
2022-08-25T02:29:29.271Z,2.85
2022-08-25T02:31:57.265Z,3.30
2022-08-25T02:34:25.310Z,2.80
2022-08-25T02:36:53.267Z,3.13
2022-08-25T02:39:21.422Z,2.80
2022-08-25T02:41:49.488Z,3.03
2022-08-25T02:44:19.048Z,2.58
2022-08-25T02:46:47.013Z,2.67
2022-08-25T02:49:15.036Z,2.92
2022-08-25T02:51:43.017Z,2.80
2022-08-25T02:54:11.161Z,3.20
2022-08-25T02:56:40.228Z,3.10
2022-08-25T02:59:08.248Z,3.25
2022-08-25T03:01:37.778Z,3.47
2022-08-25T03:04:07.294Z,3.38
2022-08-25T03:06:35.386Z,3.30
2022-08-25T03:09:03.392Z,2.80
2022-08-25T03:11:31.942Z,3.78
2022-08-25T03:13:59.944Z,3.45
2022-08-25T03:16:28.265Z,3.20
2022-08-25T03:18:59.526Z,2.83
2022-08-25T03:21:29.226Z,3.05
2022-08-25T03:23:57.926Z,2.85
2022-08-25T03:26:43.337Z,3.47
2022-08-25T03:29:11.859Z,3.50
2022-08-25T03:31:40.187Z,3.67
2022-08-25T03:34:09.792Z,2.80
2022-08-25T03:36:37.977Z,2.75
2022-08-25T03:39:06.209Z,3.72
2022-08-25T03:41:34.247Z,3.00
2022-08-25T03:44:03.505Z,3.33
2022-08-25T03:46:33.422Z,3.15
2022-08-25T03:49:02.849Z,2.67
2022-08-25T03:51:34.426Z,2.90
2022-08-25T03:54:04.126Z,2.97
2022-08-25T03:56:32.436Z,3.60
2022-08-25T03:59:00.467Z,3.33
2022-08-25T04:01:28.580Z,2.95
2022-08-25T04:03:56.876Z,3.58
2022-08-25T04:06:24.844Z,4.00
2022-08-25T04:08:54.456Z,3.60
2022-08-25T04:11:24.352Z,3.03
2022-08-25T04:13:53.888Z,3.75
2022-08-25T04:16:24.760Z,3.15
2022-08-25T04:18:54.982Z,3.17
2022-08-25T04:21:24.511Z,3.05
2022-08-25T04:23:55.549Z,3.00
2022-08-25T04:26:25.844Z,2.92
2022-08-25T04:28:54.503Z,3.58
2022-08-25T04:31:23.282Z,3.33
2022-08-25T04:33:51.712Z,3.55
2022-08-25T04:36:21.285Z,3.35
2022-08-25T04:38:50.760Z,3.38
2022-08-25T04:41:22.226Z,3.90
2022-08-25T04:43:50.412Z,3.65
2022-08-25T04:46:20.803Z,3.72
2022-08-25T04:48:49.620Z,3.05
2022-08-25T04:51:19.680Z,3.50
2022-08-25T04:53:47.797Z,3.53
2022-08-25T04:56:17.404Z,3.40
2022-08-25T04:58:47.648Z,3.40
2022-08-25T05:01:17.449Z,3.20
2022-08-25T05:03:46.235Z,3.80
2022-08-25T05:06:16.334Z,3.92
2022-08-25T05:08:45.906Z,3.70
2022-08-25T05:11:17.557Z,4.18
2022-08-25T05:13:51.418Z,4.13
2022-08-25T05:16:20.728Z,4.32
2022-08-25T05:18:49.432Z,3.60
2022-08-25T05:21:19.235Z,4.05
2022-08-25T05:23:48.146Z,3.72
2022-08-25T05:26:20.421Z,3.80
2022-08-25T05:28:52.565Z,5.00
2022-08-25T05:31:21.965Z,3.90
2022-08-25T05:33:50.212Z,4.28
2022-08-25T05:36:19.893Z,4.00
2022-08-25T05:38:48.232Z,4.05
2022-08-25T05:41:18.612Z,3.55
2022-08-25T05:43:50.229Z,4.32
2022-08-25T05:46:21.248Z,3.38
2022-08-25T05:48:52.335Z,3.42
2022-08-25T05:51:21.250Z,3.67
2022-08-25T05:53:51.512Z,3.28
2022-08-25T05:56:20.080Z,3.45
2022-08-25T05:58:50.270Z,3.58
2022-08-25T06:01:43.400Z,3.25
2022-08-25T06:04:13.178Z,2.67
2022-08-25T06:06:41.524Z,4.05
2022-08-25T06:09:10.567Z,3.13
2022-08-25T06:11:40.478Z,2.13
2022-08-25T06:14:11.066Z,1.85
2022-08-25T06:16:40.625Z,2.58
2022-08-25T06:19:10.583Z,3.17
2022-08-25T06:21:40.715Z,3.17
2022-08-25T06:24:15.160Z,2.83
2022-08-25T06:26:44.078Z,3.03
2022-08-25T06:29:15.796Z,4.55
2022-08-25T06:31:45.050Z,4.30
2022-08-25T06:34:13.762Z,3.63
2022-08-25T06:36:42.138Z,4.05
2022-08-25T06:39:11.321Z,4.45
2022-08-25T06:41:39.510Z,3.88
2022-08-25T06:44:07.609Z,2.45
2022-08-25T06:46:37.347Z,2.75
2022-08-25T06:49:06.197Z,3.05
2022-08-25T06:51:36.171Z,2.97
2022-08-25T06:54:06.439Z,3.55
2022-08-25T06:56:35.380Z,3.88
2022-08-25T06:59:04.533Z,3.72
2022-08-25T07:01:33.253Z,4.57
2022-08-25T07:04:07.576Z,3.90
2022-08-25T07:06:38.414Z,6.72
2022-08-25T07:09:08.425Z,6.07
2022-08-25T07:11:36.460Z,6.50
2022-08-25T07:14:06.596Z,6.53
2022-08-25T07:16:35.316Z,6.63
2022-08-25T07:19:05.437Z,5.75
2022-08-25T07:21:35.964Z,4.75
2022-08-25T07:24:07.585Z,3.72
2022-08-25T07:26:38.473Z,5.60
2022-08-25T07:29:10.482Z,7.05
2022-08-25T07:31:39.014Z,7.38
2022-08-25T07:34:26.820Z,7.25
2022-08-25T07:36:57.476Z,8.35
2022-08-25T07:39:26.816Z,11.10
2022-08-25T07:41:57.935Z,12.02
2022-08-25T07:44:27.933Z,15.65
2022-08-25T07:46:56.993Z,13.30
2022-08-25T07:49:35.914Z,10.77
2022-08-25T07:52:11.310Z,8.73
2022-08-25T07:54:39.397Z,6.10
2022-08-25T07:57:10.043Z,5.28
2022-08-25T07:59:53.733Z,5.22
2022-08-25T08:02:23.408Z,4.00
2022-08-25T08:04:55.794Z,4.55
2022-08-25T08:07:41.885Z,3.88
2022-08-25T08:13:07.123Z,4.05
2022-08-25T08:15:35.930Z,4.20
2022-08-25T08:18:07.202Z,3.92
2022-08-25T08:20:43.117Z,4.60
2022-08-25T08:23:11.777Z,4.43
2022-08-25T08:25:39.839Z,3.85
2022-08-25T08:28:08.746Z,4.43
2022-08-25T08:30:39.255Z,3.85
2022-08-25T08:33:12.002Z,4.68
2022-08-25T08:35:44.506Z,4.20
2022-08-25T08:38:18.406Z,3.70
2022-08-25T08:41:24.952Z,3.90
2022-08-25T08:44:02.230Z,4.88
2022-08-25T08:46:41.531Z,4.57
2022-08-25T08:49:16.910Z,3.90
2022-08-25T08:51:54.238Z,3.78
2022-08-25T08:54:26.525Z,3.45
2022-08-25T08:57:08.102Z,3.72
2022-08-25T08:59:44.654Z,3.97
2022-08-25T09:02:39.244Z,3.80
2022-08-25T09:05:19.368Z,3.38
2022-08-25T09:07:54.871Z,3.58
2022-08-25T09:10:26.535Z,3.80
2022-08-25T09:13:11.875Z,3.30
2022-08-25T09:16:06.725Z,3.17
2022-08-25T09:18:51.282Z,3.00
2022-08-25T09:21:31.166Z,3.03
2022-08-25T09:24:31.929Z,3.60
2022-08-25T09:27:10.256Z,2.72
2022-08-25T09:29:50.988Z,2.97
2022-08-25T09:32:24.323Z,2.47
2022-08-25T09:34:56.026Z,2.58
2022-08-25T09:37:25.928Z,2.47
2022-08-25T09:39:58.035Z,2.30
2022-08-25T09:42:49.755Z,2.55
2022-08-25T09:45:31.505Z,2.10
2022-08-25T09:47:59.879Z,2.42
2022-08-25T09:50:34.886Z,2.10
2022-08-25T09:53:17.585Z,2.78
2022-08-25T09:56:00.173Z,2.38
2022-08-25T09:58:28.781Z,2.47
2022-08-25T10:01:15.033Z,2.33
2022-08-25T10:04:05.072Z,2.42
2022-08-25T10:06:38.758Z,2.25
2022-08-25T10:09:08.798Z,1.85
2022-08-25T10:11:42.680Z,2.33
2022-08-25T10:14:23.184Z,2.60
2022-08-25T10:16:54.626Z,2.20
2022-08-25T10:19:27.893Z,2.30
2022-08-25T10:22:10.771Z,2.33
2022-08-25T10:24:41.013Z,2.53
2022-08-25T10:27:24.096Z,2.58
2022-08-25T10:30:14.615Z,2.38
2022-08-25T10:33:14.394Z,2.88
2022-08-25T10:35:58.394Z,2.42
2022-08-25T10:38:38.094Z,2.28
2022-08-25T10:41:22.563Z,2.28
2022-08-25T10:43:58.773Z,2.55
2022-08-25T10:46:34.757Z,2.45
2022-08-25T10:49:09.208Z,2.42
2022-08-25T10:51:52.838Z,2.30
2022-08-25T10:54:34.110Z,1.83
2022-08-25T10:57:10.639Z,2.55
2022-08-25T10:59:53.839Z,2.10
2022-08-25T11:02:43.814Z,1.90
2022-08-25T11:05:17.028Z,2.10
2022-08-25T11:07:57.033Z,2.13
2022-08-25T11:10:31.942Z,2.15
2022-08-25T11:13:05.361Z,2.20
2022-08-25T11:15:54.805Z,2.17
2022-08-25T11:18:33.358Z,2.20
2022-08-25T11:21:09.820Z,2.50
2022-08-25T11:23:43.237Z,2.10
2022-08-25T11:26:13.724Z,1.95
2022-08-25T11:28:53.635Z,2.10
2022-08-25T11:31:24.632Z,2.10
2022-08-25T11:33:54.758Z,2.28
2022-08-25T11:36:30.013Z,2.55
2022-08-25T11:39:15.568Z,1.70
2022-08-25T11:41:58.782Z,2.25
2022-08-25T11:44:53.834Z,2.20
2022-08-25T11:47:39.146Z,2.40
2022-08-25T11:50:09.571Z,2.03
2022-08-25T11:52:51.075Z,2.78
2022-08-25T11:55:23.396Z,1.88
2022-08-25T11:57:54.637Z,2.60
2022-08-25T12:00:41.556Z,2.40
2022-08-25T12:03:51.099Z,1.90
2022-08-25T12:06:29.705Z,2.53
2022-08-25T12:09:22.818Z,2.72
2022-08-25T12:11:58.317Z,2.13
2022-08-25T12:14:48.787Z,1.80
2022-08-25T12:17:26.500Z,2.00
2022-08-25T12:20:00.714Z,2.00
2022-08-25T12:22:57.054Z,1.95
2022-08-25T12:25:54.319Z,1.83
2022-08-25T12:28:39.247Z,1.73
2022-08-25T12:31:17.663Z,2.03
2022-08-25T12:33:57.680Z,2.22
2022-08-25T12:36:33.556Z,2.00
2022-08-25T12:39:24.294Z,2.00
2022-08-25T12:41:59.554Z,1.90
2022-08-25T12:44:47.272Z,1.90
2022-08-25T12:47:32.482Z,2.65
2022-08-25T12:50:36.461Z,1.85
2022-08-25T12:53:13.582Z,1.65
2022-08-25T12:55:46.948Z,1.83
2022-08-25T12:58:15.076Z,2.05
2022-08-25T13:01:07.658Z,1.55
2022-08-25T13:04:04.809Z,2.03
2022-08-25T13:07:03.230Z,1.90
2022-08-25T13:10:25.149Z,1.70
2022-08-25T13:13:07.217Z,1.63
2022-08-25T13:18:36.470Z,1.50
2022-08-25T13:21:10.418Z,1.70
2022-08-25T13:23:40.968Z,1.42
2022-08-25T13:26:13.684Z,2.92
2022-08-25T13:28:50.138Z,1.60
2022-08-25T13:31:25.221Z,1.70
2022-08-25T13:33:54.987Z,1.73
2022-08-25T13:36:46.951Z,1.70
2022-08-25T13:39:45.576Z,1.90
2022-08-25T13:42:18.511Z,1.25
2022-08-25T13:44:53.718Z,1.70
2022-08-25T13:47:43.318Z,1.50
2022-08-25T13:50:20.350Z,1.55
2022-08-25T13:52:52.492Z,1.73
2022-08-25T13:55:27.745Z,1.85
2022-08-25T13:57:59.473Z,1.27
2022-08-25T14:00:32.455Z,1.65
2022-08-25T14:03:02.065Z,1.58
2022-08-25T14:05:40.724Z,1.48
2022-08-25T14:08:32.559Z,1.48
2022-08-25T14:11:13.874Z,1.90
2022-08-25T14:13:46.125Z,1.47
2022-08-25T14:16:19.879Z,1.50
2022-08-25T14:18:50.368Z,1.48
2022-08-25T14:21:20.254Z,1.05
2022-08-25T14:23:48.362Z,1.00
2022-08-25T14:26:16.807Z,1.05
2022-08-25T14:28:46.209Z,1.10
2022-08-25T14:31:20.004Z,1.20
2022-08-25T14:33:54.284Z,1.33
2022-08-25T14:36:22.662Z,1.13
2022-08-25T14:38:54.962Z,1.25
2022-08-25T14:41:23.853Z,0.90
2022-08-25T14:43:53.443Z,1.35
2022-08-25T14:46:24.432Z,1.00
2022-08-25T14:48:56.857Z,1.65
2022-08-25T14:51:26.458Z,1.80
2022-08-25T14:53:57.464Z,1.55
2022-08-25T14:56:25.541Z,1.10
2022-08-25T14:58:59.633Z,1.08
2022-08-25T15:01:30.078Z,1.20
2022-08-25T15:04:03.304Z,1.23
2022-08-25T15:06:31.800Z,1.40
2022-08-25T15:09:13.942Z,1.40
2022-08-25T15:11:44.754Z,1.15
2022-08-25T15:14:17.519Z,1.10
2022-08-25T15:16:49.306Z,1.40
2022-08-25T15:19:19.323Z,1.20
2022-08-25T15:21:49.676Z,1.17
2022-08-25T15:24:18.992Z,1.02
2022-08-25T15:29:20.890Z,1.23
2022-08-25T15:31:49.062Z,0.98
2022-08-25T15:34:19.475Z,1.35
2022-08-25T15:36:47.545Z,1.00
2022-08-25T15:39:18.828Z,1.40
2022-08-25T15:41:49.322Z,1.38
2022-08-25T15:44:20.454Z,1.10
2022-08-25T15:46:50.063Z,0.90
2022-08-25T15:49:33.383Z,1.10
2022-08-25T15:56:26.462Z,1.25
2022-08-25T16:00:17.923Z,0.95
2022-08-25T16:35:07.489Z,1.00
2022-08-25T16:38:04.650Z,1.23
2022-08-25T16:40:55.973Z,0.90
2022-08-25T16:43:24.330Z,1.23
2022-08-25T16:46:12.809Z,1.13
2022-08-25T16:48:51.235Z,1.02
2022-08-25T16:51:25.599Z,1.05
2022-08-25T16:54:27.659Z,1.08
2022-08-25T16:56:57.538Z,1.00
2022-08-25T16:59:26.204Z,1.17
2022-08-25T17:01:55.197Z,1.00
2022-08-25T17:04:27.617Z,0.98
2022-08-25T17:07:01.745Z,1.30
2022-08-25T17:09:31.964Z,1.13
2022-08-25T17:12:00.078Z,1.00
2022-08-25T17:14:28.986Z,1.40
2022-08-25T17:16:57.219Z,1.10
2022-08-25T17:19:26.547Z,1.13
2022-08-25T17:21:55.282Z,0.70
2022-08-25T17:24:29.662Z,1.27
2022-08-25T17:27:02.067Z,1.05
2022-08-25T17:29:30.508Z,1.45
2022-08-25T17:31:59.266Z,1.85
2022-08-25T17:34:28.337Z,1.20
2022-08-25T17:36:59.012Z,1.30
2022-08-25T17:58:47.218Z,1.50
2022-08-25T18:01:42.204Z,1.65
2022-08-25T18:15:51.071Z,1.67
2022-08-25T18:20:21.801Z,1.92
2022-08-25T18:22:23.862Z,1.73
2022-08-25T18:24:52.664Z,1.58
2022-08-25T18:27:23.976Z,1.40
2022-08-25T18:29:54.304Z,2.35
2022-08-25T18:32:25.978Z,1.90
2022-08-25T18:34:54.638Z,1.30
2022-08-25T18:37:40.447Z,1.70
2022-08-25T18:40:25.116Z,2.33
2022-08-25T18:42:55.063Z,2.00
2022-08-25T18:45:28.246Z,1.73
2022-08-25T18:47:57.613Z,1.73
2022-08-25T18:50:26.559Z,1.88
2022-08-25T18:52:55.296Z,1.33
2022-08-25T18:55:24.001Z,1.67
2022-08-25T18:57:52.413Z,1.80
2022-08-25T19:00:23.737Z,1.75
2022-08-25T19:02:53.596Z,1.95
2022-08-25T19:05:26.186Z,1.60
2022-08-25T19:07:54.153Z,2.37
2022-08-25T19:10:24.014Z,2.08
2022-08-25T19:12:54.056Z,1.60
2022-08-25T19:15:26.218Z,1.48
2022-08-25T19:17:57.642Z,1.80
2022-08-25T19:20:29.770Z,1.73
2022-08-25T19:22:58.819Z,1.77
2022-08-25T19:25:33.039Z,1.83
2022-08-25T19:28:01.703Z,1.75
2022-08-25T19:30:30.891Z,1.52
2022-08-25T19:33:01.598Z,1.60
2022-08-25T19:35:42.286Z,1.80
2022-08-25T19:38:33.553Z,1.73
2022-08-25T19:41:01.296Z,1.98
2022-08-25T19:43:29.321Z,1.70
2022-08-25T19:45:57.342Z,1.88
2022-08-25T19:48:25.596Z,1.40
2022-08-25T19:50:56.181Z,1.98
2022-08-25T19:53:24.404Z,1.80
2022-08-25T19:55:53.127Z,1.30
2022-08-25T19:58:21.079Z,1.60
2022-08-25T20:00:51.263Z,1.88
2022-08-25T20:03:20.682Z,1.45
2022-08-25T20:05:51.262Z,1.88
2022-08-25T20:08:29.732Z,2.03
2022-08-25T20:10:58.347Z,1.75
2022-08-25T20:13:26.321Z,1.60
2022-08-25T20:15:57.638Z,1.83
2022-08-25T20:18:27.035Z,1.93
2022-08-25T20:20:55.208Z,1.50
2022-08-25T20:23:44.130Z,1.70
2022-08-25T20:26:12.396Z,1.70
2022-08-25T20:28:42.166Z,1.48
2022-08-25T20:31:10.533Z,1.67
2022-08-25T20:33:38.541Z,1.60
2022-08-25T20:36:08.641Z,1.58
2022-08-25T20:38:40.154Z,1.90
2022-08-25T20:41:10.057Z,1.83
2022-08-25T20:43:40.068Z,2.47
2022-08-25T20:46:09.441Z,1.90
2022-08-25T20:48:38.378Z,1.90
2022-08-25T20:51:07.829Z,1.80
2022-08-25T20:53:38.451Z,1.67
2022-08-25T20:56:09.299Z,1.70
2022-08-25T20:58:38.043Z,1.77
2022-08-25T21:01:09.108Z,1.70
2022-08-25T21:03:38.478Z,1.80
2022-08-25T21:06:08.892Z,1.70
2022-08-25T21:08:46.600Z,1.70
2022-08-25T21:11:17.800Z,1.70
2022-08-25T21:13:46.835Z,1.80
2022-08-25T21:16:15.219Z,1.85
2022-08-25T21:18:47.937Z,1.60
2022-08-25T21:21:16.496Z,1.60
2022-08-25T21:23:48.264Z,1.67
2022-08-25T21:26:18.006Z,1.65
2022-08-25T21:28:47.829Z,1.73
2022-08-25T21:31:16.917Z,1.60
2022-08-25T21:33:46.245Z,1.88
2022-08-25T21:36:20.016Z,1.85
2022-08-25T21:38:50.626Z,1.77
2022-08-25T21:41:21.417Z,1.83
2022-08-25T21:43:50.745Z,1.50
2022-08-25T21:46:26.593Z,1.85
2022-08-25T21:48:56.287Z,2.15
2022-08-25T21:51:27.065Z,1.67
2022-08-25T21:54:10.086Z,2.03
2022-08-25T21:56:39.816Z,1.80
2022-08-25T21:59:09.610Z,2.22
2022-08-25T22:01:38.555Z,1.75
2022-08-25T22:04:07.814Z,1.77
2022-08-25T22:06:36.908Z,2.05
2022-08-25T22:09:09.437Z,1.50
2022-08-25T22:11:37.457Z,1.75
2022-08-25T22:14:07.118Z,2.35
2022-08-25T22:16:36.015Z,1.90
2022-08-25T22:19:05.542Z,1.98
2022-08-25T22:21:34.062Z,1.80
2022-08-25T22:24:02.453Z,2.00
2022-08-25T22:26:34.350Z,2.25
2022-08-25T22:29:02.963Z,1.60
2022-08-25T22:31:32.847Z,1.73
2022-08-25T22:34:02.737Z,1.95
2022-08-25T22:36:32.831Z,1.80
2022-08-25T22:39:01.562Z,2.20
2022-08-25T22:41:31.625Z,2.10
2022-08-25T22:44:04.806Z,1.90
2022-08-25T22:46:33.717Z,2.20
2022-08-25T22:49:04.098Z,2.10
2022-08-25T22:51:32.333Z,1.80
2022-08-25T22:54:02.468Z,2.53
2022-08-25T22:56:34.057Z,1.67
2022-08-25T22:59:06.159Z,2.17
2022-08-25T23:01:35.059Z,2.13
2022-08-25T23:04:04.042Z,2.38
2022-08-25T23:06:34.488Z,2.55
2022-08-25T23:09:07.083Z,2.00
2022-08-25T23:11:35.754Z,1.73
2022-08-25T23:14:11.093Z,1.92
2022-08-25T23:16:39.672Z,2.50
2022-08-25T23:19:10.018Z,2.08
2022-08-25T23:21:56.948Z,2.15
2022-08-25T23:24:29.903Z,2.53
2022-08-25T23:26:59.427Z,1.90
2022-08-25T23:29:28.928Z,1.88
2022-08-25T23:31:58.009Z,1.67
2022-08-25T23:34:28.617Z,2.38
2022-08-25T23:36:57.651Z,2.00
2022-08-25T23:39:25.765Z,2.10
2022-08-25T23:41:53.855Z,1.42
2022-08-25T23:44:23.417Z,2.03
2022-08-25T23:46:55.434Z,2.20
2022-08-25T23:49:25.983Z,1.70
2022-08-25T23:51:56.226Z,1.60
2022-08-25T23:54:31.311Z,2.75
2022-08-25T23:56:59.744Z,2.22
2022-08-25T23:59:27.804Z,2.20
